sensor_id;sensor_type;location;lat;lon;timestamp;temperature;humidity
40952;DHT22;26682;51.660;19.338;2023-08-08T00:00:50;13.80;99.90
40952;DHT22;26682;51.660;19.338;2023-08-08T00:03:48;13.80;99.90
40952;DHT22;26682;51.660;19.338;2023-08-08T00:06:30;13.80;99.90
40952;DHT22;26682;51.660;19.338;2023-08-08T00:09:12;13.70;99.90
40952;DHT22;26682;51.660;19.338;2023-08-08T00:11:55;13.70;99.90
40952;DHT22;26682;51.660;19.338;2023-08-08T00:14:39;13.70;99.90
40952;DHT22;26682;51.660;19.338;2023-08-08T00:17:22;13.60;99.90
40952;DHT22;26682;51.660;19.338;2023-08-08T00:20:05;13.60;99.90
40952;DHT22;26682;51.660;19.338;2023-08-08T00:22:49;13.60;99.90
40952;DHT22;26682;51.660;19.338;2023-08-08T00:25:31;13.60;36.20
40952;DHT22;26682;51.660;19.338;2023-08-08T00:28:14;13.50;1.00
40952;DHT22;26682;51.660;19.338;2023-08-08T00:30:56;13.50;1.00
40952;DHT22;26682;51.660;19.338;2023-08-08T00:33:39;13.50;1.00
40952;DHT22;26682;51.660;19.338;2023-08-08T00:36:21;13.40;1.00
40952;DHT22;26682;51.660;19.338;2023-08-08T00:39:03;13.40;1.00
40952;DHT22;26682;51.660;19.338;2023-08-08T00:41:46;13.30;1.00
40952;DHT22;26682;51.660;19.338;2023-08-08T00:44:30;13.30;1.00
40952;DHT22;26682;51.660;19.338;2023-08-08T00:47:12;13.20;1.00
40952;DHT22;26682;51.660;19.338;2023-08-08T00:49:55;13.20;1.00
40952;DHT22;26682;51.660;19.338;2023-08-08T00:52:38;13.20;1.00
40952;DHT22;26682;51.660;19.338;2023-08-08T00:55:23;13.20;1.00
40952;DHT22;26682;51.660;19.338;2023-08-08T00:58:05;13.10;1.00
40952;DHT22;26682;51.660;19.338;2023-08-08T01:00:48;13.10;1.00
40952;DHT22;26682;51.660;19.338;2023-08-08T01:03:30;13.10;99.90
40952;DHT22;26682;51.660;19.338;2023-08-08T01:06:21;13.10;99.90
40952;DHT22;26682;51.660;19.338;2023-08-08T01:09:48;13.00;99.90
40952;DHT22;26682;51.660;19.338;2023-08-08T01:12:42;13.00;99.90
40952;DHT22;26682;51.660;19.338;2023-08-08T01:15:25;13.00;99.90
40952;DHT22;26682;51.660;19.338;2023-08-08T01:18:09;13.00;99.90
40952;DHT22;26682;51.660;19.338;2023-08-08T01:20:53;13.00;99.90
40952;DHT22;26682;51.660;19.338;2023-08-08T01:23:45;12.90;99.90
40952;DHT22;26682;51.660;19.338;2023-08-08T01:26:28;12.80;99.90
40952;DHT22;26682;51.660;19.338;2023-08-08T01:29:11;12.80;99.90
40952;DHT22;26682;51.660;19.338;2023-08-08T01:31:53;12.80;99.90
40952;DHT22;26682;51.660;19.338;2023-08-08T01:34:37;12.80;99.90
40952;DHT22;26682;51.660;19.338;2023-08-08T01:37:44;12.70;99.90
40952;DHT22;26682;51.660;19.338;2023-08-08T01:40:28;12.70;99.90
40952;DHT22;26682;51.660;19.338;2023-08-08T01:43:12;12.70;99.90
40952;DHT22;26682;51.660;19.338;2023-08-08T01:45:56;12.70;99.90
40952;DHT22;26682;51.660;19.338;2023-08-08T01:48:38;12.60;99.90
40952;DHT22;26682;51.660;19.338;2023-08-08T01:51:21;12.60;99.90
40952;DHT22;26682;51.660;19.338;2023-08-08T01:54:03;12.60;99.90
40952;DHT22;26682;51.660;19.338;2023-08-08T01:56:45;12.60;99.90
40952;DHT22;26682;51.660;19.338;2023-08-08T01:59:28;12.50;99.90
40952;DHT22;26682;51.660;19.338;2023-08-08T02:02:10;12.50;99.90
40952;DHT22;26682;51.660;19.338;2023-08-08T02:04:52;12.50;99.90
40952;DHT22;26682;51.660;19.338;2023-08-08T02:07:35;12.50;99.90
40952;DHT22;26682;51.660;19.338;2023-08-08T02:10:17;12.50;99.90
40952;DHT22;26682;51.660;19.338;2023-08-08T02:13:01;12.50;99.90
40952;DHT22;26682;51.660;19.338;2023-08-08T02:15:43;12.40;99.90
40952;DHT22;26682;51.660;19.338;2023-08-08T02:18:26;12.40;99.90
40952;DHT22;26682;51.660;19.338;2023-08-08T02:21:08;12.40;99.90
40952;DHT22;26682;51.660;19.338;2023-08-08T02:23:51;12.40;99.90
40952;DHT22;26682;51.660;19.338;2023-08-08T02:26:33;12.40;99.90
40952;DHT22;26682;51.660;19.338;2023-08-08T02:29:16;12.40;99.90
40952;DHT22;26682;51.660;19.338;2023-08-08T02:31:58;12.40;99.90
40952;DHT22;26682;51.660;19.338;2023-08-08T02:34:42;12.40;99.90
40952;DHT22;26682;51.660;19.338;2023-08-08T02:37:24;12.40;99.90
40952;DHT22;26682;51.660;19.338;2023-08-08T02:40:07;12.50;14.10
40952;DHT22;26682;51.660;19.338;2023-08-08T02:42:50;12.50;1.00
40952;DHT22;26682;51.660;19.338;2023-08-08T02:45:32;12.50;1.00
40952;DHT22;26682;51.660;19.338;2023-08-08T02:48:14;12.50;1.00
40952;DHT22;26682;51.660;19.338;2023-08-08T02:50:58;12.50;1.00
40952;DHT22;26682;51.660;19.338;2023-08-08T02:53:42;12.60;1.00
40952;DHT22;26682;51.660;19.338;2023-08-08T02:56:25;12.70;99.90
40952;DHT22;26682;51.660;19.338;2023-08-08T02:59:08;12.70;99.90
40952;DHT22;26682;51.660;19.338;2023-08-08T03:01:51;12.80;99.90
40952;DHT22;26682;51.660;19.338;2023-08-08T03:04:34;12.80;99.90
40952;DHT22;26682;51.660;19.338;2023-08-08T03:07:19;12.80;99.90
40952;DHT22;26682;51.660;19.338;2023-08-08T03:10:01;12.80;99.90
40952;DHT22;26682;51.660;19.338;2023-08-08T03:12:46;12.90;99.90
40952;DHT22;26682;51.660;19.338;2023-08-08T03:15:29;12.90;99.90
40952;DHT22;26682;51.660;19.338;2023-08-08T03:18:12;12.90;99.90
40952;DHT22;26682;51.660;19.338;2023-08-08T03:20:54;12.90;39.80
40952;DHT22;26682;51.660;19.338;2023-08-08T03:23:38;12.90;22.10
40952;DHT22;26682;51.660;19.338;2023-08-08T03:26:20;12.90;1.00
40952;DHT22;26682;51.660;19.338;2023-08-08T03:29:03;12.90;1.00
40952;DHT22;26682;51.660;19.338;2023-08-08T03:31:54;12.90;1.00
40952;DHT22;26682;51.660;19.338;2023-08-08T03:34:37;12.90;1.00
40952;DHT22;26682;51.660;19.338;2023-08-08T03:37:19;12.90;1.00
40952;DHT22;26682;51.660;19.338;2023-08-08T03:40:04;12.90;1.00
40952;DHT22;26682;51.660;19.338;2023-08-08T03:42:46;12.90;1.00
40952;DHT22;26682;51.660;19.338;2023-08-08T03:45:30;12.90;1.00
40952;DHT22;26682;51.660;19.338;2023-08-08T03:48:12;12.90;1.00
40952;DHT22;26682;51.660;19.338;2023-08-08T03:50:55;12.90;1.00
40952;DHT22;26682;51.660;19.338;2023-08-08T03:53:37;12.90;1.00
40952;DHT22;26682;51.660;19.338;2023-08-08T03:56:20;12.90;1.00
40952;DHT22;26682;51.660;19.338;2023-08-08T03:59:03;12.90;1.00
40952;DHT22;26682;51.660;19.338;2023-08-08T04:01:45;12.90;1.00
40952;DHT22;26682;51.660;19.338;2023-08-08T04:04:28;13.00;1.00
40952;DHT22;26682;51.660;19.338;2023-08-08T04:07:10;13.00;1.00
40952;DHT22;26682;51.660;19.338;2023-08-08T04:09:53;13.00;1.00
40952;DHT22;26682;51.660;19.338;2023-08-08T04:12:35;12.90;1.00
40952;DHT22;26682;51.660;19.338;2023-08-08T04:15:18;12.90;1.00
40952;DHT22;26682;51.660;19.338;2023-08-08T04:18:00;12.80;1.00
40952;DHT22;26682;51.660;19.338;2023-08-08T04:20:44;12.90;1.00
40952;DHT22;26682;51.660;19.338;2023-08-08T04:23:27;12.90;1.00
40952;DHT22;26682;51.660;19.338;2023-08-08T04:26:09;12.90;1.00
40952;DHT22;26682;51.660;19.338;2023-08-08T04:28:52;12.90;1.00
40952;DHT22;26682;51.660;19.338;2023-08-08T04:31:35;12.80;1.00
40952;DHT22;26682;51.660;19.338;2023-08-08T04:34:17;12.80;1.00
40952;DHT22;26682;51.660;19.338;2023-08-08T04:36:59;12.90;1.00
40952;DHT22;26682;51.660;19.338;2023-08-08T04:39:42;12.90;1.00
40952;DHT22;26682;51.660;19.338;2023-08-08T04:42:24;13.00;99.90
40952;DHT22;26682;51.660;19.338;2023-08-08T04:45:07;13.10;99.90
40952;DHT22;26682;51.660;19.338;2023-08-08T04:47:49;13.30;99.90
40952;DHT22;26682;51.660;19.338;2023-08-08T04:50:32;13.40;99.90
40952;DHT22;26682;51.660;19.338;2023-08-08T04:53:14;13.60;99.90
40952;DHT22;26682;51.660;19.338;2023-08-08T04:55:57;13.80;97.20
40952;DHT22;26682;51.660;19.338;2023-08-08T04:58:39;14.00;7.00
40952;DHT22;26682;51.660;19.338;2023-08-08T05:01:21;14.40;1.00
40952;DHT22;26682;51.660;19.338;2023-08-08T05:04:04;14.60;1.00
40952;DHT22;26682;51.660;19.338;2023-08-08T05:06:47;14.80;99.90
40952;DHT22;26682;51.660;19.338;2023-08-08T05:09:29;15.20;99.90
40952;DHT22;26682;51.660;19.338;2023-08-08T05:12:12;15.60;93.90
40952;DHT22;26682;51.660;19.338;2023-08-08T05:14:54;16.10;77.40
40952;DHT22;26682;51.660;19.338;2023-08-08T05:17:37;16.40;96.10
40952;DHT22;26682;51.660;19.338;2023-08-08T05:20:19;16.40;1.00
40952;DHT22;26682;51.660;19.338;2023-08-08T05:23:02;16.40;1.70
40952;DHT22;26682;51.660;19.338;2023-08-08T05:25:45;16.50;1.00
40952;DHT22;26682;51.660;19.338;2023-08-08T05:28:27;16.40;1.00
40952;DHT22;26682;51.660;19.338;2023-08-08T05:31:09;16.10;1.00
40952;DHT22;26682;51.660;19.338;2023-08-08T05:33:52;16.00;1.00
40952;DHT22;26682;51.660;19.338;2023-08-08T05:36:35;16.30;1.00
40952;DHT22;26682;51.660;19.338;2023-08-08T05:39:17;16.40;1.00
40952;DHT22;26682;51.660;19.338;2023-08-08T05:42:00;16.50;1.00
40952;DHT22;26682;51.660;19.338;2023-08-08T05:44:44;16.40;1.00
40952;DHT22;26682;51.660;19.338;2023-08-08T05:47:26;16.60;99.90
40952;DHT22;26682;51.660;19.338;2023-08-08T05:50:10;16.80;99.90
40952;DHT22;26682;51.660;19.338;2023-08-08T05:52:52;16.90;99.90
40952;DHT22;26682;51.660;19.338;2023-08-08T05:55:35;17.00;99.90
40952;DHT22;26682;51.660;19.338;2023-08-08T05:58:18;16.90;99.90
40952;DHT22;26682;51.660;19.338;2023-08-08T06:01:01;16.50;99.90
40952;DHT22;26682;51.660;19.338;2023-08-08T06:03:43;16.30;99.90
40952;DHT22;26682;51.660;19.338;2023-08-08T06:06:26;16.40;99.90
40952;DHT22;26682;51.660;19.338;2023-08-08T06:09:09;16.10;99.90
40952;DHT22;26682;51.660;19.338;2023-08-08T06:11:52;15.70;99.90
40952;DHT22;26682;51.660;19.338;2023-08-08T06:14:35;15.60;99.90
40952;DHT22;26682;51.660;19.338;2023-08-08T06:17:18;15.90;99.90
40952;DHT22;26682;51.660;19.338;2023-08-08T06:20:00;16.00;99.90
40952;DHT22;26682;51.660;19.338;2023-08-08T06:22:43;15.90;99.90
40952;DHT22;26682;51.660;19.338;2023-08-08T06:25:25;15.70;99.90
40952;DHT22;26682;51.660;19.338;2023-08-08T06:28:08;15.50;99.90
40952;DHT22;26682;51.660;19.338;2023-08-08T06:30:50;15.40;99.90
40952;DHT22;26682;51.660;19.338;2023-08-08T06:33:33;15.40;99.90
40952;DHT22;26682;51.660;19.338;2023-08-08T06:36:15;15.40;99.90
40952;DHT22;26682;51.660;19.338;2023-08-08T06:38:58;15.60;99.90
40952;DHT22;26682;51.660;19.338;2023-08-08T06:41:40;15.80;99.90
40952;DHT22;26682;51.660;19.338;2023-08-08T06:44:24;15.90;99.90
40952;DHT22;26682;51.660;19.338;2023-08-08T06:47:06;15.90;99.90
40952;DHT22;26682;51.660;19.338;2023-08-08T06:49:49;15.90;99.90
40952;DHT22;26682;51.660;19.338;2023-08-08T06:52:31;16.00;99.90
40952;DHT22;26682;51.660;19.338;2023-08-08T06:55:14;16.40;99.90
40952;DHT22;26682;51.660;19.338;2023-08-08T06:57:56;16.80;99.90
40952;DHT22;26682;51.660;19.338;2023-08-08T07:00:39;17.10;99.90
40952;DHT22;26682;51.660;19.338;2023-08-08T07:03:21;17.40;99.90
40952;DHT22;26682;51.660;19.338;2023-08-08T07:06:04;17.40;99.90
40952;DHT22;26682;51.660;19.338;2023-08-08T07:08:46;17.30;99.90
40952;DHT22;26682;51.660;19.338;2023-08-08T07:11:29;17.40;99.90
40952;DHT22;26682;51.660;19.338;2023-08-08T07:14:12;17.40;99.90
40952;DHT22;26682;51.660;19.338;2023-08-08T07:16:54;17.60;99.90
40952;DHT22;26682;51.660;19.338;2023-08-08T07:19:37;17.70;99.90
40952;DHT22;26682;51.660;19.338;2023-08-08T07:22:20;17.70;99.90
40952;DHT22;26682;51.660;19.338;2023-08-08T07:25:05;17.90;99.90
40952;DHT22;26682;51.660;19.338;2023-08-08T07:27:48;17.80;99.90
40952;DHT22;26682;51.660;19.338;2023-08-08T07:30:30;17.80;99.90
40952;DHT22;26682;51.660;19.338;2023-08-08T07:33:13;18.00;99.90
40952;DHT22;26682;51.660;19.338;2023-08-08T07:35:55;18.00;99.90
40952;DHT22;26682;51.660;19.338;2023-08-08T07:38:38;18.00;90.10
40952;DHT22;26682;51.660;19.338;2023-08-08T07:41:21;18.20;92.40
40952;DHT22;26682;51.660;19.338;2023-08-08T07:44:06;18.40;99.90
40952;DHT22;26682;51.660;19.338;2023-08-08T07:46:49;18.30;99.90
40952;DHT22;26682;51.660;19.338;2023-08-08T07:49:32;18.40;1.00
40952;DHT22;26682;51.660;19.338;2023-08-08T07:52:14;18.60;1.00
40952;DHT22;26682;51.660;19.338;2023-08-08T07:54:57;18.80;11.20
40952;DHT22;26682;51.660;19.338;2023-08-08T07:57:49;18.80;1.00
40952;DHT22;26682;51.660;19.338;2023-08-08T08:00:32;18.60;1.00
40952;DHT22;26682;51.660;19.338;2023-08-08T08:03:15;18.40;1.00
40952;DHT22;26682;51.660;19.338;2023-08-08T08:05:58;18.10;1.00
40952;DHT22;26682;51.660;19.338;2023-08-08T08:08:40;17.90;1.00
40952;DHT22;26682;51.660;19.338;2023-08-08T08:11:23;18.30;1.00
40952;DHT22;26682;51.660;19.338;2023-08-08T08:14:05;18.60;1.00
40952;DHT22;26682;51.660;19.338;2023-08-08T08:16:50;19.00;1.00
40952;DHT22;26682;51.660;19.338;2023-08-08T08:19:32;19.20;1.00
40952;DHT22;26682;51.660;19.338;2023-08-08T08:22:15;19.20;1.00
40952;DHT22;26682;51.660;19.338;2023-08-08T08:24:57;19.30;1.00
40952;DHT22;26682;51.660;19.338;2023-08-08T08:27:41;18.60;1.00
40952;DHT22;26682;51.660;19.338;2023-08-08T08:30:23;18.20;1.00
40952;DHT22;26682;51.660;19.338;2023-08-08T08:33:09;18.50;1.00
40952;DHT22;26682;51.660;19.338;2023-08-08T08:35:52;18.60;1.00
40952;DHT22;26682;51.660;19.338;2023-08-08T08:38:34;18.50;1.00
40952;DHT22;26682;51.660;19.338;2023-08-08T08:41:18;18.70;13.20
40952;DHT22;26682;51.660;19.338;2023-08-08T08:44:04;18.70;93.80
40952;DHT22;26682;51.660;19.338;2023-08-08T08:46:48;18.80;92.50
40952;DHT22;26682;51.660;19.338;2023-08-08T08:49:35;19.20;99.90
40952;DHT22;26682;51.660;19.338;2023-08-08T08:52:18;19.50;99.90
40952;DHT22;26682;51.660;19.338;2023-08-08T08:55:01;19.30;99.90
40952;DHT22;26682;51.660;19.338;2023-08-08T08:57:45;19.40;1.00
40952;DHT22;26682;51.660;19.338;2023-08-08T09:00:28;19.30;99.90
40952;DHT22;26682;51.660;19.338;2023-08-08T09:05:56;19.00;99.90
40952;DHT22;26682;51.660;19.338;2023-08-08T09:08:39;18.80;1.00
40952;DHT22;26682;51.660;19.338;2023-08-08T09:11:22;18.80;99.90
40952;DHT22;26682;51.660;19.338;2023-08-08T09:14:04;18.80;1.00
40952;DHT22;26682;51.660;19.338;2023-08-08T09:16:57;19.00;99.90
40952;DHT22;26682;51.660;19.338;2023-08-08T09:19:43;19.30;69.00
40952;DHT22;26682;51.660;19.338;2023-08-08T09:22:26;19.60;99.90
40952;DHT22;26682;51.660;19.338;2023-08-08T09:25:11;19.20;1.00
40952;DHT22;26682;51.660;19.338;2023-08-08T09:28:06;19.00;72.60
40952;DHT22;26682;51.660;19.338;2023-08-08T09:30:49;19.30;99.90
40952;DHT22;26682;51.660;19.338;2023-08-08T09:33:32;19.60;99.90
40952;DHT22;26682;51.660;19.338;2023-08-08T09:36:14;19.80;99.90
40952;DHT22;26682;51.660;19.338;2023-08-08T09:38:58;19.90;99.90
40952;DHT22;26682;51.660;19.338;2023-08-08T09:41:45;20.20;99.90
40952;DHT22;26682;51.660;19.338;2023-08-08T09:44:48;20.10;1.00
40952;DHT22;26682;51.660;19.338;2023-08-08T09:47:30;20.30;1.00
40952;DHT22;26682;51.660;19.338;2023-08-08T09:50:14;20.30;1.00
40952;DHT22;26682;51.660;19.338;2023-08-08T09:52:56;20.40;1.00
40952;DHT22;26682;51.660;19.338;2023-08-08T09:55:39;20.40;1.00
40952;DHT22;26682;51.660;19.338;2023-08-08T09:58:22;19.70;1.00
40952;DHT22;26682;51.660;19.338;2023-08-08T10:01:08;19.50;1.00
40952;DHT22;26682;51.660;19.338;2023-08-08T10:03:52;19.50;1.00
40952;DHT22;26682;51.660;19.338;2023-08-08T10:06:35;19.80;99.90
40952;DHT22;26682;51.660;19.338;2023-08-08T10:09:17;20.10;99.90
40952;DHT22;26682;51.660;19.338;2023-08-08T10:12:00;20.30;99.90
40952;DHT22;26682;51.660;19.338;2023-08-08T10:14:47;20.30;99.90
40952;DHT22;26682;51.660;19.338;2023-08-08T10:17:36;20.30;99.90
40952;DHT22;26682;51.660;19.338;2023-08-08T10:20:19;20.60;1.00
40952;DHT22;26682;51.660;19.338;2023-08-08T10:23:04;20.60;1.00
40952;DHT22;26682;51.660;19.338;2023-08-08T10:25:52;20.50;1.00
40952;DHT22;26682;51.660;19.338;2023-08-08T10:28:35;20.30;1.00
40952;DHT22;26682;51.660;19.338;2023-08-08T10:31:19;20.10;1.00
40952;DHT22;26682;51.660;19.338;2023-08-08T10:34:04;19.60;1.00
40952;DHT22;26682;51.660;19.338;2023-08-08T10:36:51;19.40;1.00
40952;DHT22;26682;51.660;19.338;2023-08-08T10:39:37;19.50;1.00
40952;DHT22;26682;51.660;19.338;2023-08-08T10:42:20;19.10;1.00
40952;DHT22;26682;51.660;19.338;2023-08-08T10:45:05;18.70;1.00
40952;DHT22;26682;51.660;19.338;2023-08-08T10:47:48;18.60;1.00
40952;DHT22;26682;51.660;19.338;2023-08-08T10:50:31;18.80;1.00
40952;DHT22;26682;51.660;19.338;2023-08-08T10:53:14;19.20;1.00
40952;DHT22;26682;51.660;19.338;2023-08-08T10:56:02;19.50;1.00
40952;DHT22;26682;51.660;19.338;2023-08-08T10:58:49;19.70;1.00
40952;DHT22;26682;51.660;19.338;2023-08-08T11:01:31;19.80;1.00
40952;DHT22;26682;51.660;19.338;2023-08-08T11:04:19;19.60;1.00
40952;DHT22;26682;51.660;19.338;2023-08-08T11:07:02;19.70;1.00
40952;DHT22;26682;51.660;19.338;2023-08-08T11:09:45;20.00;1.00
40952;DHT22;26682;51.660;19.338;2023-08-08T11:12:27;20.10;1.00
40952;DHT22;26682;51.660;19.338;2023-08-08T11:15:09;20.20;1.00
40952;DHT22;26682;51.660;19.338;2023-08-08T11:17:53;20.30;1.00
40952;DHT22;26682;51.660;19.338;2023-08-08T11:20:36;20.30;1.00
40952;DHT22;26682;51.660;19.338;2023-08-08T11:23:19;20.20;1.00
40952;DHT22;26682;51.660;19.338;2023-08-08T11:26:02;19.80;1.00
40952;DHT22;26682;51.660;19.338;2023-08-08T11:28:50;19.50;1.00
40952;DHT22;26682;51.660;19.338;2023-08-08T11:31:34;19.50;1.00
40952;DHT22;26682;51.660;19.338;2023-08-08T11:34:17;19.60;1.00
40952;DHT22;26682;51.660;19.338;2023-08-08T11:37:01;19.40;1.00
40952;DHT22;26682;51.660;19.338;2023-08-08T11:39:44;19.50;1.00
40952;DHT22;26682;51.660;19.338;2023-08-08T11:42:27;19.50;1.00
40952;DHT22;26682;51.660;19.338;2023-08-08T11:45:13;19.60;99.90
40952;DHT22;26682;51.660;19.338;2023-08-08T11:47:56;19.70;99.90
40952;DHT22;26682;51.660;19.338;2023-08-08T11:50:39;19.80;99.90
40952;DHT22;26682;51.660;19.338;2023-08-08T11:53:24;19.90;99.90
40952;DHT22;26682;51.660;19.338;2023-08-08T11:56:07;20.20;1.00
40952;DHT22;26682;51.660;19.338;2023-08-08T11:58:50;20.20;99.90
40952;DHT22;26682;51.660;19.338;2023-08-08T12:01:37;20.40;3.40
40952;DHT22;26682;51.660;19.338;2023-08-08T12:04:20;20.70;3.70
40952;DHT22;26682;51.660;19.338;2023-08-08T12:07:03;20.80;1.00
40952;DHT22;26682;51.660;19.338;2023-08-08T12:09:49;20.80;1.00
40952;DHT22;26682;51.660;19.338;2023-08-08T12:12:33;20.40;1.00
40952;DHT22;26682;51.660;19.338;2023-08-08T12:15:21;20.40;1.00
40952;DHT22;26682;51.660;19.338;2023-08-08T12:18:04;20.40;1.00
40952;DHT22;26682;51.660;19.338;2023-08-08T12:20:46;20.40;1.00
40952;DHT22;26682;51.660;19.338;2023-08-08T12:23:30;20.60;1.00
40952;DHT22;26682;51.660;19.338;2023-08-08T12:26:12;20.60;1.00
40952;DHT22;26682;51.660;19.338;2023-08-08T12:28:55;20.20;1.00
40952;DHT22;26682;51.660;19.338;2023-08-08T12:31:39;20.00;1.00
40952;DHT22;26682;51.660;19.338;2023-08-08T12:34:21;20.00;1.00
40952;DHT22;26682;51.660;19.338;2023-08-08T12:37:04;20.50;2.30
40952;DHT22;26682;51.660;19.338;2023-08-08T12:39:47;20.70;1.00
40952;DHT22;26682;51.660;19.338;2023-08-08T12:42:29;20.90;1.00
40952;DHT22;26682;51.660;19.338;2023-08-08T12:45:12;20.90;1.00
40952;DHT22;26682;51.660;19.338;2023-08-08T12:47:54;20.80;1.20
40952;DHT22;26682;51.660;19.338;2023-08-08T12:50:38;20.80;1.00
40952;DHT22;26682;51.660;19.338;2023-08-08T12:53:20;20.80;1.00
40952;DHT22;26682;51.660;19.338;2023-08-08T12:56:03;20.80;1.00
40952;DHT22;26682;51.660;19.338;2023-08-08T12:58:46;20.50;1.00
40952;DHT22;26682;51.660;19.338;2023-08-08T13:01:28;20.40;1.00
40952;DHT22;26682;51.660;19.338;2023-08-08T13:04:11;20.40;1.00
40952;DHT22;26682;51.660;19.338;2023-08-08T13:07:01;20.40;1.00
40952;DHT22;26682;51.660;19.338;2023-08-08T13:09:44;20.50;1.00
40952;DHT22;26682;51.660;19.338;2023-08-08T13:12:29;20.60;1.00
40952;DHT22;26682;51.660;19.338;2023-08-08T13:15:12;20.70;1.00
40952;DHT22;26682;51.660;19.338;2023-08-08T13:17:59;20.60;1.00
40952;DHT22;26682;51.660;19.338;2023-08-08T13:20:42;20.40;1.00
40952;DHT22;26682;51.660;19.338;2023-08-08T13:23:25;20.50;1.00
40952;DHT22;26682;51.660;19.338;2023-08-08T13:26:07;20.40;1.00
40952;DHT22;26682;51.660;19.338;2023-08-08T13:28:50;20.30;1.00
40952;DHT22;26682;51.660;19.338;2023-08-08T13:31:33;20.30;1.00
40952;DHT22;26682;51.660;19.338;2023-08-08T13:34:15;20.40;1.00
40952;DHT22;26682;51.660;19.338;2023-08-08T13:36:58;20.50;1.00
40952;DHT22;26682;51.660;19.338;2023-08-08T13:39:40;20.70;1.00
40952;DHT22;26682;51.660;19.338;2023-08-08T13:42:23;20.80;1.00
40952;DHT22;26682;51.660;19.338;2023-08-08T13:45:06;21.00;1.00
40952;DHT22;26682;51.660;19.338;2023-08-08T13:47:49;21.00;1.00
40952;DHT22;26682;51.660;19.338;2023-08-08T13:50:32;20.90;1.00
40952;DHT22;26682;51.660;19.338;2023-08-08T13:53:17;21.00;1.00
40952;DHT22;26682;51.660;19.338;2023-08-08T13:56:00;20.90;1.00
40952;DHT22;26682;51.660;19.338;2023-08-08T13:58:46;20.80;1.00
40952;DHT22;26682;51.660;19.338;2023-08-08T14:01:29;20.80;1.00
40952;DHT22;26682;51.660;19.338;2023-08-08T14:04:11;20.80;1.00
40952;DHT22;26682;51.660;19.338;2023-08-08T14:06:54;20.60;1.00
40952;DHT22;26682;51.660;19.338;2023-08-08T14:09:36;20.70;1.00
40952;DHT22;26682;51.660;19.338;2023-08-08T14:12:19;20.80;1.00
40952;DHT22;26682;51.660;19.338;2023-08-08T14:15:01;20.90;1.00
40952;DHT22;26682;51.660;19.338;2023-08-08T14:17:44;20.70;1.00
40952;DHT22;26682;51.660;19.338;2023-08-08T14:20:27;20.60;1.00
40952;DHT22;26682;51.660;19.338;2023-08-08T14:23:10;20.60;1.00
40952;DHT22;26682;51.660;19.338;2023-08-08T14:25:52;20.60;1.00
40952;DHT22;26682;51.660;19.338;2023-08-08T14:28:36;20.70;1.00
40952;DHT22;26682;51.660;19.338;2023-08-08T14:31:19;20.80;1.00
40952;DHT22;26682;51.660;19.338;2023-08-08T14:34:02;20.80;1.00
40952;DHT22;26682;51.660;19.338;2023-08-08T14:36:45;20.70;1.00
40952;DHT22;26682;51.660;19.338;2023-08-08T14:39:28;20.60;1.00
40952;DHT22;26682;51.660;19.338;2023-08-08T14:42:10;20.50;1.00
40952;DHT22;26682;51.660;19.338;2023-08-08T14:44:53;20.30;1.00
40952;DHT22;26682;51.660;19.338;2023-08-08T14:47:36;20.10;1.00
40952;DHT22;26682;51.660;19.338;2023-08-08T14:50:19;20.00;1.00
40952;DHT22;26682;51.660;19.338;2023-08-08T14:53:01;19.90;1.00
40952;DHT22;26682;51.660;19.338;2023-08-08T14:55:44;19.90;1.00
40952;DHT22;26682;51.660;19.338;2023-08-08T14:58:27;19.90;1.00
40952;DHT22;26682;51.660;19.338;2023-08-08T15:01:09;19.90;1.00
40952;DHT22;26682;51.660;19.338;2023-08-08T15:03:52;19.90;1.00
40952;DHT22;26682;51.660;19.338;2023-08-08T15:06:36;19.80;5.30
40952;DHT22;26682;51.660;19.338;2023-08-08T15:09:20;20.00;7.20
40952;DHT22;26682;51.660;19.338;2023-08-08T15:12:03;20.10;2.60
40952;DHT22;26682;51.660;19.338;2023-08-08T15:14:46;20.00;6.20
40952;DHT22;26682;51.660;19.338;2023-08-08T15:17:28;20.00;1.00
40952;DHT22;26682;51.660;19.338;2023-08-08T15:20:11;20.10;1.00
40952;DHT22;26682;51.660;19.338;2023-08-08T15:22:53;20.20;1.00
40952;DHT22;26682;51.660;19.338;2023-08-08T15:25:36;20.30;1.00
40952;DHT22;26682;51.660;19.338;2023-08-08T15:28:19;20.40;1.00
40952;DHT22;26682;51.660;19.338;2023-08-08T15:31:01;20.20;1.00
40952;DHT22;26682;51.660;19.338;2023-08-08T15:33:44;20.10;1.00
40952;DHT22;26682;51.660;19.338;2023-08-08T15:36:27;20.20;1.00
40952;DHT22;26682;51.660;19.338;2023-08-08T15:39:10;20.30;1.00
40952;DHT22;26682;51.660;19.338;2023-08-08T15:41:53;20.20;1.00
40952;DHT22;26682;51.660;19.338;2023-08-08T15:44:36;20.20;1.00
40952;DHT22;26682;51.660;19.338;2023-08-08T15:47:18;20.30;1.00
40952;DHT22;26682;51.660;19.338;2023-08-08T15:50:01;20.30;1.00
40952;DHT22;26682;51.660;19.338;2023-08-08T15:52:43;20.20;1.00
40952;DHT22;26682;51.660;19.338;2023-08-08T15:55:25;20.00;1.00
40952;DHT22;26682;51.660;19.338;2023-08-08T15:58:08;19.80;1.00
40952;DHT22;26682;51.660;19.338;2023-08-08T16:00:51;19.60;1.00
40952;DHT22;26682;51.660;19.338;2023-08-08T16:03:34;19.50;1.00
40952;DHT22;26682;51.660;19.338;2023-08-08T16:06:17;19.40;99.90
40952;DHT22;26682;51.660;19.338;2023-08-08T16:08:59;19.30;99.90
40952;DHT22;26682;51.660;19.338;2023-08-08T16:11:42;19.20;99.90
40952;DHT22;26682;51.660;19.338;2023-08-08T16:14:25;19.30;99.90
40952;DHT22;26682;51.660;19.338;2023-08-08T16:17:08;19.30;99.90
40952;DHT22;26682;51.660;19.338;2023-08-08T16:19:51;19.40;99.90
40952;DHT22;26682;51.660;19.338;2023-08-08T16:22:34;19.30;99.90
40952;DHT22;26682;51.660;19.338;2023-08-08T16:25:16;19.20;1.00
40952;DHT22;26682;51.660;19.338;2023-08-08T16:27:59;19.10;1.00
40952;DHT22;26682;51.660;19.338;2023-08-08T16:30:41;19.00;1.00
40952;DHT22;26682;51.660;19.338;2023-08-08T16:33:24;19.10;1.00
40952;DHT22;26682;51.660;19.338;2023-08-08T16:36:06;19.10;1.00
40952;DHT22;26682;51.660;19.338;2023-08-08T16:38:50;19.20;1.00
40952;DHT22;26682;51.660;19.338;2023-08-08T16:41:36;19.20;1.00
40952;DHT22;26682;51.660;19.338;2023-08-08T16:44:18;19.20;1.00
40952;DHT22;26682;51.660;19.338;2023-08-08T16:47:02;19.20;1.00
40952;DHT22;26682;51.660;19.338;2023-08-08T16:49:45;19.20;1.00
40952;DHT22;26682;51.660;19.338;2023-08-08T16:52:28;19.10;1.00
40952;DHT22;26682;51.660;19.338;2023-08-08T16:55:10;19.10;1.00
40952;DHT22;26682;51.660;19.338;2023-08-08T16:57:53;19.00;1.00
40952;DHT22;26682;51.660;19.338;2023-08-08T17:00:35;18.80;1.00
40952;DHT22;26682;51.660;19.338;2023-08-08T17:03:18;18.80;1.00
40952;DHT22;26682;51.660;19.338;2023-08-08T17:06:01;18.70;1.00
40952;DHT22;26682;51.660;19.338;2023-08-08T17:08:43;18.60;1.00